Аэропорт: Хабаровск-Новый. Хабаровск

ICAO: UHHH

METAR:
2020-08-13 11:30:00
UHHH 131130Z 09001MPS CAVOK 19/16 Q1008 R05R/090060 NOSIG RMK QFE750/1000
METAR:
2020-08-13 10:47:00
TAF UHHH 131047Z 1312/1418 VRB01MPS CAVOK FM131500 12003MPS 3100 BR SCT011 TEMPO 1315/1322 0400 FG VV002 FM140100 15006MPS 9999 -SHRA SCT011 BKN020CB TEMPO 1401/1410 10006G11MPS 3100 -SHRA BKN003 BKN015CB